Ana Sayfa
METAR-TAF:

METAR-TAF

Havaalanları :

Florești, Moldova

Enlem: 47-51-45N, Boylam: 028-12-45E, yükseklik: 101 m

Güncel hava durumu gözlemi

Rapor saat 08:30 UTC de 23 saat ve 36 dakika önce yapıldı.
Rüzgar kuzey/kuzeybatıdan 14 kt
Sıcaklık 22°C
Nem 60%
Basınç 1017 hPa
Görüş mesafesi 10 km veya daha fazla
1500 m altında bulut yok ve kümülonimbus yok

METAR: LUBM 230830Z 33014KT CAVOK 22/14 Q1017 R07/CLRD65

Saat: 11:06 (08:06 UTC)

Tahmin

Rapor saat 08:20 UTC de 23 saat ve 46 dakika önce yapıldı.
Ayın 23'si saat 09 UTC'den ayın 23'si saat 18 UTC'ye kadar geçerli Tahmin
Rüzgar kuzey/kuzeybatıdan 10 kt
Görüş mesafesi 10 km veya daha fazla
1500 m altında bulut yok ve kümülonimbus yok
Geçici
ayın 23'si saat 09 UTC'den ayın 23'si saat 16 UTC'ye kadar
4000 ft yükseklikte parçalı bulutlu, Kümülonimbus.

TAF: LUBM 230820Z 2309/2318 33010KT CAVOK TEMPO 2309/2316 SCT040CB

4.000'den fazla havaalanı için hava durumu gözlemleri ve tahminleri (METAR ve TAF raporları).

Kullanılabilir istasyonlar harita üzerinde sarı ve kırmızı noktalarla gösterilir.

İstasyonun adını görmek için fareyi noktanın üzerinde gezdirin.

Sonrasında hava gözlem ve tahminlerini görmek için tıklayın.

Haritayı değiştirmek için: yaklaştırmak için siyah artı işaretli yeşil düğmeye ve uzaklaştırmak için de eksi işaretli düğmeye hızla tıklayın; bitişik haritalar için yeşil okları kullanın.


METAR-TAF: